sensor_id;sensor_type;location;lat;lon;timestamp;temperature;humidity
14850;DHT22;7517;48.400;11.770;2023-07-31T00:00:47;21.00;59.10
14850;DHT22;7517;48.400;11.770;2023-07-31T00:03:14;21.00;59.40
14850;DHT22;7517;48.400;11.770;2023-07-31T00:05:42;20.90;60.10
14850;DHT22;7517;48.400;11.770;2023-07-31T00:08:09;20.90;59.60
14850;DHT22;7517;48.400;11.770;2023-07-31T00:10:37;20.90;59.60
14850;DHT22;7517;48.400;11.770;2023-07-31T00:13:04;20.80;59.70
14850;DHT22;7517;48.400;11.770;2023-07-31T00:15:31;20.80;59.80
14850;DHT22;7517;48.400;11.770;2023-07-31T00:18:00;20.80;60.00
14850;DHT22;7517;48.400;11.770;2023-07-31T00:20:28;20.70;60.10
14850;DHT22;7517;48.400;11.770;2023-07-31T00:22:56;20.70;60.20
14850;DHT22;7517;48.400;11.770;2023-07-31T00:25:23;20.60;60.40
14850;DHT22;7517;48.400;11.770;2023-07-31T00:27:50;20.60;60.70
14850;DHT22;7517;48.400;11.770;2023-07-31T00:30:17;20.60;60.90
14850;DHT22;7517;48.400;11.770;2023-07-31T00:32:45;20.60;60.80
14850;DHT22;7517;48.400;11.770;2023-07-31T00:35:13;20.60;60.90
14850;DHT22;7517;48.400;11.770;2023-07-31T00:37:41;20.50;60.90
14850;DHT22;7517;48.400;11.770;2023-07-31T00:40:08;20.50;61.00
14850;DHT22;7517;48.400;11.770;2023-07-31T00:42:36;20.40;61.10
14850;DHT22;7517;48.400;11.770;2023-07-31T00:45:04;20.40;61.40
14850;DHT22;7517;48.400;11.770;2023-07-31T00:47:32;20.40;61.30
14850;DHT22;7517;48.400;11.770;2023-07-31T00:50:00;20.40;61.40
14850;DHT22;7517;48.400;11.770;2023-07-31T00:52:29;20.30;61.50
14850;DHT22;7517;48.400;11.770;2023-07-31T00:54:57;20.30;61.70
14850;DHT22;7517;48.400;11.770;2023-07-31T00:57:24;20.20;61.60
14850;DHT22;7517;48.400;11.770;2023-07-31T00:59:52;20.20;61.60
14850;DHT22;7517;48.400;11.770;2023-07-31T01:02:20;20.20;61.60
14850;DHT22;7517;48.400;11.770;2023-07-31T01:04:47;20.20;61.70
14850;DHT22;7517;48.400;11.770;2023-07-31T01:07:20;20.10;61.70
14850;DHT22;7517;48.400;11.770;2023-07-31T01:10:04;20.10;62.30
14850;DHT22;7517;48.400;11.770;2023-07-31T01:12:38;20.00;62.40
14850;DHT22;7517;48.400;11.770;2023-07-31T01:15:08;20.00;62.20
14850;DHT22;7517;48.400;11.770;2023-07-31T01:17:41;20.00;62.30
14850;DHT22;7517;48.400;11.770;2023-07-31T01:20:12;19.90;62.40
14850;DHT22;7517;48.400;11.770;2023-07-31T01:22:59;19.90;62.60
14850;DHT22;7517;48.400;11.770;2023-07-31T01:26:03;19.90;63.30
14850;DHT22;7517;48.400;11.770;2023-07-31T01:28:40;19.80;62.80
14850;DHT22;7517;48.400;11.770;2023-07-31T01:31:20;19.80;62.90
14850;DHT22;7517;48.400;11.770;2023-07-31T01:33:50;19.80;63.00
14850;DHT22;7517;48.400;11.770;2023-07-31T01:36:21;19.80;63.00
14850;DHT22;7517;48.400;11.770;2023-07-31T01:38:48;19.80;63.10
14850;DHT22;7517;48.400;11.770;2023-07-31T01:41:18;19.70;63.20
14850;DHT22;7517;48.400;11.770;2023-07-31T01:43:46;19.70;63.30
14850;DHT22;7517;48.400;11.770;2023-07-31T01:46:13;19.70;63.30
14850;DHT22;7517;48.400;11.770;2023-07-31T01:48:40;19.70;63.40
14850;DHT22;7517;48.400;11.770;2023-07-31T01:51:07;19.60;63.40
14850;DHT22;7517;48.400;11.770;2023-07-31T01:53:35;19.60;63.50
14850;DHT22;7517;48.400;11.770;2023-07-31T01:56:02;19.60;63.60
14850;DHT22;7517;48.400;11.770;2023-07-31T01:58:31;19.50;63.60
14850;DHT22;7517;48.400;11.770;2023-07-31T02:00:58;19.50;63.90
14850;DHT22;7517;48.400;11.770;2023-07-31T02:03:25;19.40;64.70
14850;DHT22;7517;48.400;11.770;2023-07-31T02:05:54;19.50;64.30
14850;DHT22;7517;48.400;11.770;2023-07-31T02:08:22;19.50;64.50
14850;DHT22;7517;48.400;11.770;2023-07-31T02:10:49;19.40;64.40
14850;DHT22;7517;48.400;11.770;2023-07-31T02:13:16;19.40;64.50
14850;DHT22;7517;48.400;11.770;2023-07-31T02:15:47;19.40;64.50
14850;DHT22;7517;48.400;11.770;2023-07-31T02:18:16;19.40;64.70
14850;DHT22;7517;48.400;11.770;2023-07-31T02:20:43;19.40;65.50
14850;DHT22;7517;48.400;11.770;2023-07-31T02:23:11;19.40;64.90
14850;DHT22;7517;48.400;11.770;2023-07-31T02:25:39;19.40;65.00
14850;DHT22;7517;48.400;11.770;2023-07-31T02:28:06;19.30;65.00
14850;DHT22;7517;48.400;11.770;2023-07-31T02:30:35;19.30;65.10
14850;DHT22;7517;48.400;11.770;2023-07-31T02:33:07;19.30;65.10
14850;DHT22;7517;48.400;11.770;2023-07-31T02:35:34;19.30;65.10
14850;DHT22;7517;48.400;11.770;2023-07-31T02:38:02;19.30;65.20
14850;DHT22;7517;48.400;11.770;2023-07-31T02:40:30;19.20;65.30
14850;DHT22;7517;48.400;11.770;2023-07-31T02:42:57;19.20;65.30
14850;DHT22;7517;48.400;11.770;2023-07-31T02:45:24;19.20;65.30
14850;DHT22;7517;48.400;11.770;2023-07-31T02:47:52;19.20;65.30
14850;DHT22;7517;48.400;11.770;2023-07-31T02:50:20;19.20;65.40
14850;DHT22;7517;48.400;11.770;2023-07-31T02:52:48;19.20;65.40
14850;DHT22;7517;48.400;11.770;2023-07-31T02:55:15;19.10;65.40
14850;DHT22;7517;48.400;11.770;2023-07-31T02:57:44;19.10;65.50
14850;DHT22;7517;48.400;11.770;2023-07-31T03:00:11;19.10;65.50
14850;DHT22;7517;48.400;11.770;2023-07-31T03:02:39;19.10;65.60
14850;DHT22;7517;48.400;11.770;2023-07-31T03:05:06;19.00;65.60
14850;DHT22;7517;48.400;11.770;2023-07-31T03:07:36;19.00;65.70
14850;DHT22;7517;48.400;11.770;2023-07-31T03:10:03;19.00;65.70
14850;DHT22;7517;48.400;11.770;2023-07-31T03:12:31;19.00;65.60
14850;DHT22;7517;48.400;11.770;2023-07-31T03:14:59;19.00;65.70
14850;DHT22;7517;48.400;11.770;2023-07-31T03:17:26;18.90;65.70
14850;DHT22;7517;48.400;11.770;2023-07-31T03:19:53;18.90;65.90
14850;DHT22;7517;48.400;11.770;2023-07-31T03:22:22;18.90;65.90
14850;DHT22;7517;48.400;11.770;2023-07-31T03:24:50;18.90;65.90
14850;DHT22;7517;48.400;11.770;2023-07-31T03:27:19;18.80;66.00
14850;DHT22;7517;48.400;11.770;2023-07-31T03:29:46;18.80;66.00
14850;DHT22;7517;48.400;11.770;2023-07-31T03:32:15;18.80;66.10
14850;DHT22;7517;48.400;11.770;2023-07-31T03:34:42;18.80;66.10
14850;DHT22;7517;48.400;11.770;2023-07-31T03:37:09;18.70;66.10
14850;DHT22;7517;48.400;11.770;2023-07-31T03:39:36;18.70;66.10
14850;DHT22;7517;48.400;11.770;2023-07-31T03:42:06;18.70;66.20
14850;DHT22;7517;48.400;11.770;2023-07-31T03:44:33;18.70;66.40
14850;DHT22;7517;48.400;11.770;2023-07-31T03:47:01;18.70;66.50
14850;DHT22;7517;48.400;11.770;2023-07-31T03:49:28;18.60;66.60
14850;DHT22;7517;48.400;11.770;2023-07-31T03:51:56;18.60;66.70
14850;DHT22;7517;48.400;11.770;2023-07-31T03:54:23;18.60;66.70
14850;DHT22;7517;48.400;11.770;2023-07-31T03:56:51;18.60;66.80
14850;DHT22;7517;48.400;11.770;2023-07-31T03:59:20;18.60;67.80
14850;DHT22;7517;48.400;11.770;2023-07-31T04:01:47;18.60;67.30
14850;DHT22;7517;48.400;11.770;2023-07-31T04:04:16;18.60;67.40
14850;DHT22;7517;48.400;11.770;2023-07-31T04:06:43;18.60;67.70
14850;DHT22;7517;48.400;11.770;2023-07-31T04:09:10;18.50;67.70
14850;DHT22;7517;48.400;11.770;2023-07-31T04:11:37;18.50;67.90
14850;DHT22;7517;48.400;11.770;2023-07-31T04:14:05;18.50;68.10
14850;DHT22;7517;48.400;11.770;2023-07-31T04:16:34;18.60;68.30
14850;DHT22;7517;48.400;11.770;2023-07-31T04:19:01;18.60;68.50
14850;DHT22;7517;48.400;11.770;2023-07-31T04:21:31;18.60;68.50
14850;DHT22;7517;48.400;11.770;2023-07-31T04:23:59;18.60;68.50
14850;DHT22;7517;48.400;11.770;2023-07-31T04:26:26;18.60;69.30
14850;DHT22;7517;48.400;11.770;2023-07-31T04:28:53;18.60;68.60
14850;DHT22;7517;48.400;11.770;2023-07-31T04:31:20;18.60;68.60
14850;DHT22;7517;48.400;11.770;2023-07-31T04:33:49;18.60;68.70
14850;DHT22;7517;48.400;11.770;2023-07-31T04:36:17;18.60;68.90
14850;DHT22;7517;48.400;11.770;2023-07-31T04:38:45;18.60;68.90
14850;DHT22;7517;48.400;11.770;2023-07-31T04:41:12;18.50;68.90
14850;DHT22;7517;48.400;11.770;2023-07-31T04:43:39;18.70;69.10
14850;DHT22;7517;48.400;11.770;2023-07-31T04:46:06;18.70;69.10
14850;DHT22;7517;48.400;11.770;2023-07-31T04:48:34;18.70;69.20
14850;DHT22;7517;48.400;11.770;2023-07-31T04:51:02;18.70;69.20
14850;DHT22;7517;48.400;11.770;2023-07-31T04:53:29;18.70;69.50
14850;DHT22;7517;48.400;11.770;2023-07-31T04:55:58;18.80;70.40
14850;DHT22;7517;48.400;11.770;2023-07-31T04:58:25;18.80;69.80
14850;DHT22;7517;48.400;11.770;2023-07-31T05:00:52;18.80;69.90
14850;DHT22;7517;48.400;11.770;2023-07-31T05:03:19;18.90;70.10
14850;DHT22;7517;48.400;11.770;2023-07-31T05:05:47;18.90;70.10
14850;DHT22;7517;48.400;11.770;2023-07-31T05:08:16;19.00;70.10
14850;DHT22;7517;48.400;11.770;2023-07-31T05:10:43;19.00;70.10
14850;DHT22;7517;48.400;11.770;2023-07-31T05:13:10;19.10;70.20
14850;DHT22;7517;48.400;11.770;2023-07-31T05:15:38;19.10;70.20
14850;DHT22;7517;48.400;11.770;2023-07-31T05:18:05;19.20;70.20
14850;DHT22;7517;48.400;11.770;2023-07-31T05:20:33;19.20;70.20
14850;DHT22;7517;48.400;11.770;2023-07-31T05:23:01;19.30;70.20
14850;DHT22;7517;48.400;11.770;2023-07-31T05:25:30;19.30;70.30
14850;DHT22;7517;48.400;11.770;2023-07-31T05:27:57;19.40;70.40
14850;DHT22;7517;48.400;11.770;2023-07-31T05:30:25;19.40;70.50
14850;DHT22;7517;48.400;11.770;2023-07-31T05:32:52;19.50;70.50
14850;DHT22;7517;48.400;11.770;2023-07-31T05:35:19;19.50;70.50
14850;DHT22;7517;48.400;11.770;2023-07-31T05:37:46;19.60;70.60
14850;DHT22;7517;48.400;11.770;2023-07-31T05:40:14;19.60;70.60
14850;DHT22;7517;48.400;11.770;2023-07-31T05:42:43;19.70;70.70
14850;DHT22;7517;48.400;11.770;2023-07-31T05:45:11;19.80;70.70
14850;DHT22;7517;48.400;11.770;2023-07-31T05:47:39;19.90;70.80
14850;DHT22;7517;48.400;11.770;2023-07-31T05:50:06;19.90;70.60
14850;DHT22;7517;48.400;11.770;2023-07-31T05:52:34;20.00;70.60
14850;DHT22;7517;48.400;11.770;2023-07-31T05:55:01;20.10;70.60
14850;DHT22;7517;48.400;11.770;2023-07-31T05:57:29;20.20;70.40
14850;DHT22;7517;48.400;11.770;2023-07-31T05:59:58;20.30;70.30
14850;DHT22;7517;48.400;11.770;2023-07-31T06:02:25;20.50;70.50
14850;DHT22;7517;48.400;11.770;2023-07-31T06:04:52;20.60;70.50
14850;DHT22;7517;48.400;11.770;2023-07-31T06:07:20;20.70;70.40
14850;DHT22;7517;48.400;11.770;2023-07-31T06:09:47;20.80;70.20
14850;DHT22;7517;48.400;11.770;2023-07-31T06:12:14;21.00;70.10
14850;DHT22;7517;48.400;11.770;2023-07-31T06:14:44;21.10;69.60
14850;DHT22;7517;48.400;11.770;2023-07-31T06:17:13;21.20;70.20
14850;DHT22;7517;48.400;11.770;2023-07-31T06:19:40;21.30;69.40
14850;DHT22;7517;48.400;11.770;2023-07-31T06:22:07;21.40;69.00
14850;DHT22;7517;48.400;11.770;2023-07-31T06:24:34;21.50;68.70
14850;DHT22;7517;48.400;11.770;2023-07-31T06:27:04;21.60;68.80
14850;DHT22;7517;48.400;11.770;2023-07-31T06:29:32;21.70;68.80
14850;DHT22;7517;48.400;11.770;2023-07-31T06:32:01;21.80;68.70
14850;DHT22;7517;48.400;11.770;2023-07-31T06:34:31;21.90;68.80
14850;DHT22;7517;48.400;11.770;2023-07-31T06:36:58;22.00;69.00
14850;DHT22;7517;48.400;11.770;2023-07-31T06:39:25;22.10;68.70
14850;DHT22;7517;48.400;11.770;2023-07-31T06:41:54;22.10;68.20
14850;DHT22;7517;48.400;11.770;2023-07-31T06:44:22;22.20;68.20
14850;DHT22;7517;48.400;11.770;2023-07-31T06:46:50;22.30;67.60
14850;DHT22;7517;48.400;11.770;2023-07-31T06:49:24;22.40;67.40
14850;DHT22;7517;48.400;11.770;2023-07-31T06:51:53;22.50;66.90
14850;DHT22;7517;48.400;11.770;2023-07-31T06:54:20;22.60;66.20
14850;DHT22;7517;48.400;11.770;2023-07-31T06:56:47;22.60;65.80
14850;DHT22;7517;48.400;11.770;2023-07-31T06:59:14;22.70;65.40
14850;DHT22;7517;48.400;11.770;2023-07-31T07:01:41;22.70;65.50
14850;DHT22;7517;48.400;11.770;2023-07-31T07:04:08;22.80;65.50
14850;DHT22;7517;48.400;11.770;2023-07-31T07:06:35;22.80;65.00
14850;DHT22;7517;48.400;11.770;2023-07-31T07:09:04;22.90;64.50
14850;DHT22;7517;48.400;11.770;2023-07-31T07:11:32;22.90;64.40
14850;DHT22;7517;48.400;11.770;2023-07-31T07:13:59;23.00;64.30
14850;DHT22;7517;48.400;11.770;2023-07-31T07:16:28;23.00;64.10
14850;DHT22;7517;48.400;11.770;2023-07-31T07:18:56;23.10;64.30
14850;DHT22;7517;48.400;11.770;2023-07-31T07:21:23;23.10;64.10
14850;DHT22;7517;48.400;11.770;2023-07-31T07:23:50;23.20;63.90
14850;DHT22;7517;48.400;11.770;2023-07-31T07:26:20;23.20;64.00
14850;DHT22;7517;48.400;11.770;2023-07-31T07:28:47;23.20;63.60
14850;DHT22;7517;48.400;11.770;2023-07-31T07:31:14;23.30;63.50
14850;DHT22;7517;48.400;11.770;2023-07-31T07:33:43;23.40;63.50
14850;DHT22;7517;48.400;11.770;2023-07-31T07:36:10;23.40;63.60
14850;DHT22;7517;48.400;11.770;2023-07-31T07:38:38;23.50;63.20
14850;DHT22;7517;48.400;11.770;2023-07-31T07:41:07;23.50;62.80
14850;DHT22;7517;48.400;11.770;2023-07-31T07:43:36;23.60;62.60
14850;DHT22;7517;48.400;11.770;2023-07-31T07:46:03;23.60;62.30
14850;DHT22;7517;48.400;11.770;2023-07-31T07:48:30;23.70;62.60
14850;DHT22;7517;48.400;11.770;2023-07-31T07:50:59;23.70;62.60
14850;DHT22;7517;48.400;11.770;2023-07-31T07:53:26;23.80;62.60
14850;DHT22;7517;48.400;11.770;2023-07-31T07:55:53;23.80;63.40
14850;DHT22;7517;48.400;11.770;2023-07-31T07:58:21;23.90;63.00
14850;DHT22;7517;48.400;11.770;2023-07-31T08:00:50;24.00;63.30
14850;DHT22;7517;48.400;11.770;2023-07-31T08:03:18;24.10;62.50
14850;DHT22;7517;48.400;11.770;2023-07-31T08:05:45;24.20;62.20
14850;DHT22;7517;48.400;11.770;2023-07-31T08:08:15;24.30;62.40
14850;DHT22;7517;48.400;11.770;2023-07-31T08:10:43;24.40;62.50
14850;DHT22;7517;48.400;11.770;2023-07-31T08:13:11;24.60;62.40
14850;DHT22;7517;48.400;11.770;2023-07-31T08:15:41;24.70;61.70
14850;DHT22;7517;48.400;11.770;2023-07-31T08:18:10;24.80;60.60
14850;DHT22;7517;48.400;11.770;2023-07-31T08:20:39;24.90;60.10
14850;DHT22;7517;48.400;11.770;2023-07-31T08:23:06;25.10;59.90
14850;DHT22;7517;48.400;11.770;2023-07-31T08:25:35;25.20;59.70
14850;DHT22;7517;48.400;11.770;2023-07-31T08:28:02;25.30;59.40
14850;DHT22;7517;48.400;11.770;2023-07-31T08:32:57;25.50;58.50
14850;DHT22;7517;48.400;11.770;2023-07-31T08:35:26;25.60;58.20
14850;DHT22;7517;48.400;11.770;2023-07-31T08:37:56;25.60;57.60
14850;DHT22;7517;48.400;11.770;2023-07-31T08:40:23;25.80;57.80
14850;DHT22;7517;48.400;11.770;2023-07-31T08:42:54;25.90;57.50
14850;DHT22;7517;48.400;11.770;2023-07-31T08:45:27;26.00;56.90
14850;DHT22;7517;48.400;11.770;2023-07-31T08:47:56;26.10;56.70
14850;DHT22;7517;48.400;11.770;2023-07-31T08:50:23;26.20;56.50
14850;DHT22;7517;48.400;11.770;2023-07-31T08:52:53;26.20;56.00
14850;DHT22;7517;48.400;11.770;2023-07-31T08:55:20;26.30;55.80
14850;DHT22;7517;48.400;11.770;2023-07-31T08:57:51;26.30;55.10
14850;DHT22;7517;48.400;11.770;2023-07-31T09:00:19;26.30;54.60
14850;DHT22;7517;48.400;11.770;2023-07-31T09:02:54;26.40;54.30
14850;DHT22;7517;48.400;11.770;2023-07-31T09:05:28;26.40;54.10
14850;DHT22;7517;48.400;11.770;2023-07-31T09:07:57;26.40;54.40
14850;DHT22;7517;48.400;11.770;2023-07-31T09:10:24;26.40;54.40
14850;DHT22;7517;48.400;11.770;2023-07-31T09:12:52;26.30;54.00
14850;DHT22;7517;48.400;11.770;2023-07-31T09:15:20;26.30;53.80
14850;DHT22;7517;48.400;11.770;2023-07-31T09:17:59;26.30;53.60
14850;DHT22;7517;48.400;11.770;2023-07-31T09:20:28;26.20;53.10
14850;DHT22;7517;48.400;11.770;2023-07-31T09:22:56;26.20;53.90
14850;DHT22;7517;48.400;11.770;2023-07-31T09:25:35;26.10;54.10
14850;DHT22;7517;48.400;11.770;2023-07-31T09:28:04;26.10;53.30
14850;DHT22;7517;48.400;11.770;2023-07-31T09:30:44;26.10;53.20
14850;DHT22;7517;48.400;11.770;2023-07-31T09:33:14;26.10;52.40
14850;DHT22;7517;48.400;11.770;2023-07-31T09:35:43;26.00;52.80
14850;DHT22;7517;48.400;11.770;2023-07-31T09:38:11;26.00;52.50
14850;DHT22;7517;48.400;11.770;2023-07-31T09:40:40;26.00;52.70
14850;DHT22;7517;48.400;11.770;2023-07-31T09:43:10;26.00;53.00
14850;DHT22;7517;48.400;11.770;2023-07-31T09:45:39;25.90;53.20
14850;DHT22;7517;48.400;11.770;2023-07-31T09:48:08;25.90;53.10
14850;DHT22;7517;48.400;11.770;2023-07-31T09:50:37;25.90;53.00
14850;DHT22;7517;48.400;11.770;2023-07-31T09:53:07;25.80;52.70
14850;DHT22;7517;48.400;11.770;2023-07-31T09:55:39;25.80;52.50
14850;DHT22;7517;48.400;11.770;2023-07-31T09:58:09;25.80;52.90
14850;DHT22;7517;48.400;11.770;2023-07-31T10:00:40;25.90;53.50
14850;DHT22;7517;48.400;11.770;2023-07-31T10:03:09;26.00;53.20
14850;DHT22;7517;48.400;11.770;2023-07-31T10:05:40;26.00;52.90
14850;DHT22;7517;48.400;11.770;2023-07-31T10:08:13;26.20;52.70
14850;DHT22;7517;48.400;11.770;2023-07-31T10:10:43;26.30;52.40
14850;DHT22;7517;48.400;11.770;2023-07-31T10:13:11;26.50;52.90
14850;DHT22;7517;48.400;11.770;2023-07-31T10:15:39;26.70;52.70
14850;DHT22;7517;48.400;11.770;2023-07-31T10:18:09;26.90;52.50
14850;DHT22;7517;48.400;11.770;2023-07-31T10:20:38;27.10;52.00
14850;DHT22;7517;48.400;11.770;2023-07-31T10:23:06;27.30;52.10
14850;DHT22;7517;48.400;11.770;2023-07-31T10:25:37;27.50;52.00
14850;DHT22;7517;48.400;11.770;2023-07-31T10:28:05;27.60;52.20
14850;DHT22;7517;48.400;11.770;2023-07-31T10:30:33;27.80;51.90
14850;DHT22;7517;48.400;11.770;2023-07-31T10:33:04;28.00;51.70
14850;DHT22;7517;48.400;11.770;2023-07-31T10:35:32;28.20;51.40
14850;DHT22;7517;48.400;11.770;2023-07-31T10:38:10;28.30;51.10
14850;DHT22;7517;48.400;11.770;2023-07-31T10:40:40;28.40;50.00
14850;DHT22;7517;48.400;11.770;2023-07-31T10:43:08;28.50;50.50
14850;DHT22;7517;48.400;11.770;2023-07-31T10:45:38;28.60;50.40
14850;DHT22;7517;48.400;11.770;2023-07-31T10:48:12;28.70;50.20
14850;DHT22;7517;48.400;11.770;2023-07-31T10:50:47;28.80;50.30
14850;DHT22;7517;48.400;11.770;2023-07-31T10:53:23;28.90;49.10
14850;DHT22;7517;48.400;11.770;2023-07-31T10:55:52;29.10;48.80
14850;DHT22;7517;48.400;11.770;2023-07-31T10:58:24;29.20;48.40
14850;DHT22;7517;48.400;11.770;2023-07-31T11:00:55;29.30;49.10
14850;DHT22;7517;48.400;11.770;2023-07-31T11:03:26;29.40;48.50
14850;DHT22;7517;48.400;11.770;2023-07-31T11:06:00;29.40;48.10
14850;DHT22;7517;48.400;11.770;2023-07-31T11:08:30;29.30;48.00
14850;DHT22;7517;48.400;11.770;2023-07-31T11:11:14;29.30;48.30
14850;DHT22;7517;48.400;11.770;2023-07-31T11:13:46;29.30;47.60
14850;DHT22;7517;48.400;11.770;2023-07-31T11:16:15;29.20;47.30
14850;DHT22;7517;48.400;11.770;2023-07-31T11:18:44;29.20;48.30
14850;DHT22;7517;48.400;11.770;2023-07-31T11:21:13;29.00;47.60
14850;DHT22;7517;48.400;11.770;2023-07-31T11:23:41;28.90;47.50
14850;DHT22;7517;48.400;11.770;2023-07-31T11:26:12;28.90;47.80
14850;DHT22;7517;48.400;11.770;2023-07-31T11:28:41;28.80;47.20
14850;DHT22;7517;48.400;11.770;2023-07-31T11:31:09;28.60;47.50
14850;DHT22;7517;48.400;11.770;2023-07-31T11:33:37;28.60;47.80
14850;DHT22;7517;48.400;11.770;2023-07-31T11:36:05;28.50;48.00
14850;DHT22;7517;48.400;11.770;2023-07-31T11:38:33;28.40;48.10
14850;DHT22;7517;48.400;11.770;2023-07-31T11:41:02;28.30;48.20
14850;DHT22;7517;48.400;11.770;2023-07-31T11:43:31;28.30;48.70
14850;DHT22;7517;48.400;11.770;2023-07-31T11:46:01;28.20;48.30
14850;DHT22;7517;48.400;11.770;2023-07-31T11:48:30;28.10;47.90
14850;DHT22;7517;48.400;11.770;2023-07-31T11:51:02;28.00;48.40
14850;DHT22;7517;48.400;11.770;2023-07-31T11:53:35;28.00;48.50
14850;DHT22;7517;48.400;11.770;2023-07-31T11:56:07;28.00;48.30
14850;DHT22;7517;48.400;11.770;2023-07-31T11:58:37;27.90;48.80
14850;DHT22;7517;48.400;11.770;2023-07-31T12:01:07;27.90;48.90
14850;DHT22;7517;48.400;11.770;2023-07-31T12:03:35;27.90;48.70
14850;DHT22;7517;48.400;11.770;2023-07-31T12:06:03;27.90;49.00
14850;DHT22;7517;48.400;11.770;2023-07-31T12:08:30;27.80;49.00
14850;DHT22;7517;48.400;11.770;2023-07-31T12:11:03;27.80;49.30
14850;DHT22;7517;48.400;11.770;2023-07-31T12:13:32;27.80;48.90
14850;DHT22;7517;48.400;11.770;2023-07-31T12:16:02;27.80;48.90
14850;DHT22;7517;48.400;11.770;2023-07-31T12:18:34;27.80;49.10
14850;DHT22;7517;48.400;11.770;2023-07-31T12:21:05;27.80;48.80
14850;DHT22;7517;48.400;11.770;2023-07-31T12:23:37;27.80;48.50
14850;DHT22;7517;48.400;11.770;2023-07-31T12:26:10;27.70;49.00
14850;DHT22;7517;48.400;11.770;2023-07-31T12:28:40;27.80;49.20
14850;DHT22;7517;48.400;11.770;2023-07-31T12:31:10;27.80;49.00
14850;DHT22;7517;48.400;11.770;2023-07-31T12:33:41;27.80;49.00
14850;DHT22;7517;48.400;11.770;2023-07-31T12:36:10;27.80;49.20
14850;DHT22;7517;48.400;11.770;2023-07-31T12:38:38;27.90;49.30
14850;DHT22;7517;48.400;11.770;2023-07-31T12:41:06;27.90;49.60
14850;DHT22;7517;48.400;11.770;2023-07-31T12:43:33;27.90;49.60
14850;DHT22;7517;48.400;11.770;2023-07-31T12:46:00;28.00;49.50
14850;DHT22;7517;48.400;11.770;2023-07-31T12:48:28;28.00;49.10
14850;DHT22;7517;48.400;11.770;2023-07-31T12:50:57;28.00;48.90
14850;DHT22;7517;48.400;11.770;2023-07-31T12:53:24;28.10;48.60
14850;DHT22;7517;48.400;11.770;2023-07-31T12:55:51;28.00;48.50
14850;DHT22;7517;48.400;11.770;2023-07-31T12:58:19;28.10;48.60
14850;DHT22;7517;48.400;11.770;2023-07-31T13:00:46;28.10;49.00
14850;DHT22;7517;48.400;11.770;2023-07-31T13:03:13;28.10;48.70
14850;DHT22;7517;48.400;11.770;2023-07-31T13:05:41;28.10;48.40
14850;DHT22;7517;48.400;11.770;2023-07-31T13:08:10;28.20;48.00
14850;DHT22;7517;48.400;11.770;2023-07-31T13:10:38;28.20;48.60
14850;DHT22;7517;48.400;11.770;2023-07-31T13:13:05;28.20;48.90
14850;DHT22;7517;48.400;11.770;2023-07-31T13:15:32;28.20;48.50
14850;DHT22;7517;48.400;11.770;2023-07-31T13:17:59;28.30;48.60
14850;DHT22;7517;48.400;11.770;2023-07-31T13:20:27;28.30;48.10
14850;DHT22;7517;48.400;11.770;2023-07-31T13:22:54;28.30;48.20
14850;DHT22;7517;48.400;11.770;2023-07-31T13:25:24;28.30;48.60
14850;DHT22;7517;48.400;11.770;2023-07-31T13:27:51;28.30;48.20
14850;DHT22;7517;48.400;11.770;2023-07-31T13:30:18;28.30;48.30
14850;DHT22;7517;48.400;11.770;2023-07-31T13:32:45;28.30;48.00
14850;DHT22;7517;48.400;11.770;2023-07-31T13:35:13;28.30;48.20
14850;DHT22;7517;48.400;11.770;2023-07-31T13:37:40;28.30;48.00
14850;DHT22;7517;48.400;11.770;2023-07-31T13:40:08;28.30;48.00
14850;DHT22;7517;48.400;11.770;2023-07-31T13:42:37;28.30;48.20
14850;DHT22;7517;48.400;11.770;2023-07-31T13:45:05;28.30;48.20
14850;DHT22;7517;48.400;11.770;2023-07-31T13:47:33;28.30;48.80
14850;DHT22;7517;48.400;11.770;2023-07-31T13:50:03;28.30;48.90
14850;DHT22;7517;48.400;11.770;2023-07-31T13:52:31;28.30;48.70
14850;DHT22;7517;48.400;11.770;2023-07-31T13:54:58;28.30;48.40
14850;DHT22;7517;48.400;11.770;2023-07-31T13:57:25;28.30;48.30
14850;DHT22;7517;48.400;11.770;2023-07-31T13:59:55;28.30;48.50
14850;DHT22;7517;48.400;11.770;2023-07-31T14:02:22;28.30;48.30
14850;DHT22;7517;48.400;11.770;2023-07-31T14:04:50;28.30;48.10
14850;DHT22;7517;48.400;11.770;2023-07-31T14:07:17;28.30;48.10
14850;DHT22;7517;48.400;11.770;2023-07-31T14:09:44;28.30;48.20
14850;DHT22;7517;48.400;11.770;2023-07-31T14:12:12;28.30;48.10
14850;DHT22;7517;48.400;11.770;2023-07-31T14:14:40;28.30;48.00
14850;DHT22;7517;48.400;11.770;2023-07-31T14:17:09;28.30;47.80
14850;DHT22;7517;48.400;11.770;2023-07-31T14:19:37;28.40;47.90
14850;DHT22;7517;48.400;11.770;2023-07-31T14:22:05;28.40;47.70
14850;DHT22;7517;48.400;11.770;2023-07-31T14:24:32;28.40;47.90
14850;DHT22;7517;48.400;11.770;2023-07-31T14:27:01;28.40;48.00
14850;DHT22;7517;48.400;11.770;2023-07-31T14:29:30;28.40;47.80
14850;DHT22;7517;48.400;11.770;2023-07-31T14:31:57;28.40;47.60
14850;DHT22;7517;48.400;11.770;2023-07-31T14:34:26;28.50;47.80
14850;DHT22;7517;48.400;11.770;2023-07-31T14:36:54;28.50;47.50
14850;DHT22;7517;48.400;11.770;2023-07-31T14:39:21;28.50;47.80
14850;DHT22;7517;48.400;11.770;2023-07-31T14:41:48;28.50;47.60
14850;DHT22;7517;48.400;11.770;2023-07-31T14:44:15;28.50;47.50
14850;DHT22;7517;48.400;11.770;2023-07-31T14:46:42;28.60;47.50
14850;DHT22;7517;48.400;11.770;2023-07-31T14:49:10;28.60;47.20
14850;DHT22;7517;48.400;11.770;2023-07-31T14:51:38;28.60;47.30
14850;DHT22;7517;48.400;11.770;2023-07-31T14:54:06;28.60;47.30
14850;DHT22;7517;48.400;11.770;2023-07-31T14:56:34;28.60;47.50
14850;DHT22;7517;48.400;11.770;2023-07-31T14:59:03;28.60;47.10
14850;DHT22;7517;48.400;11.770;2023-07-31T15:01:33;28.60;46.90
14850;DHT22;7517;48.400;11.770;2023-07-31T15:04:00;28.60;47.20
14850;DHT22;7517;48.400;11.770;2023-07-31T15:06:27;28.60;47.40
14850;DHT22;7517;48.400;11.770;2023-07-31T15:08:56;28.50;47.30
14850;DHT22;7517;48.400;11.770;2023-07-31T15:11:23;28.60;47.20
14850;DHT22;7517;48.400;11.770;2023-07-31T15:13:50;28.60;47.30
14850;DHT22;7517;48.400;11.770;2023-07-31T15:16:18;28.60;47.20
14850;DHT22;7517;48.400;11.770;2023-07-31T15:18:45;28.60;47.10
14850;DHT22;7517;48.400;11.770;2023-07-31T15:21:12;28.60;47.30
14850;DHT22;7517;48.400;11.770;2023-07-31T15:23:42;28.60;47.30
14850;DHT22;7517;48.400;11.770;2023-07-31T15:26:10;28.60;47.30
14850;DHT22;7517;48.400;11.770;2023-07-31T15:28:37;28.50;47.30
14850;DHT22;7517;48.400;11.770;2023-07-31T15:31:05;28.60;47.30
14850;DHT22;7517;48.400;11.770;2023-07-31T15:33:32;28.60;47.50
14850;DHT22;7517;48.400;11.770;2023-07-31T15:35:59;28.60;47.50
14850;DHT22;7517;48.400;11.770;2023-07-31T15:38:27;28.60;47.30
14850;DHT22;7517;48.400;11.770;2023-07-31T15:40:54;28.60;47.50